Time;durP1;ratioP1;P1;durP2;ratioP2;P2;SDS_P1;SDS_P2;PMS_P1;PMS_P2;Temp;Humidity;BMP_temperature;BMP_pressure;BME280_temperature;BME280_humidity;BME280_pressure;Samples;Min_cycle;Max_cycle;Signal;HPM_P1;HPM_P2
2022/07/06 00:01:19;;;;;;;3.15;1.25;;;25.90;66.60;;;;;;5115069;28;20039;-68
2022/07/06 00:03:46;;;;;;;2.95;1.50;;;25.90;66.50;;;;;;5116912;28;20027;-68
2022/07/06 00:06:11;;;;;;;5.50;1.83;;;25.80;66.30;;;;;;5116640;27;20031;-67
2022/07/06 00:08:38;;;;;;;3.58;1.33;;;25.80;66.50;;;;;;5116931;28;20046;-68
2022/07/06 00:11:04;;;;;;;2.42;1.50;;;25.80;67.00;;;;;;5116980;28;20039;-68
2022/07/06 00:13:30;;;;;;;4.88;1.40;;;25.80;66.70;;;;;;5116838;28;20034;-68
2022/07/06 00:15:55;;;;;;;4.95;1.30;;;25.80;66.00;;;;;;5116326;28;20044;-68
2022/07/06 00:18:21;;;;;;;3.17;1.10;;;25.80;65.50;;;;;;5116660;27;20065;-68
2022/07/06 00:20:47;;;;;;;3.42;1.20;;;25.80;65.70;;;;;;5116634;27;20051;-68
2022/07/06 00:23:13;;;;;;;2.60;1.20;;;25.80;66.00;;;;;;5116619;28;20054;-68
2022/07/06 00:25:38;;;;;;;2.85;1.17;;;25.80;66.20;;;;;;5116719;28;20486;-68
2022/07/06 00:28:04;;;;;;;3.10;1.02;;;25.80;63.90;;;;;;5116426;28;20063;-68
2022/07/06 00:30:30;;;;;;;2.80;1.10;;;25.70;63.50;;;;;;5116520;28;20442;-68
2022/07/06 00:32:58;;;;;;;4.75;1.10;;;25.70;64.10;;;;;;5116275;28;20114;-68
2022/07/06 00:35:24;;;;;;;2.15;1.10;;;25.70;65.00;;;;;;5116612;28;20104;-68
2022/07/06 00:37:51;;;;;;;4.72;0.93;;;25.70;64.90;;;;;;5116328;28;20088;-68
2022/07/06 00:40:17;;;;;;;2.75;0.98;;;25.70;64.30;;;;;;5116309;28;20111;-68
2022/07/06 00:42:44;;;;;;;3.10;1.10;;;25.70;65.30;;;;;;5116013;28;20039;-68
2022/07/06 00:45:11;;;;;;;1.17;1.00;;;25.80;65.40;;;;;;5116150;28;20489;-68
2022/07/06 00:47:37;;;;;;;5.82;1.23;;;25.80;65.60;;;;;;5116189;28;20517;-68
2022/07/06 00:50:14;;;;;;;1.63;1.00;;;25.80;65.00;;;;;;5116282;28;20070;-68
2022/07/06 00:52:45;;;;;;;2.00;1.17;;;25.80;65.70;;;;;;5115865;28;20027;-68
2022/07/06 00:55:11;;;;;;;1.67;1.00;;;25.80;65.80;;;;;;5116196;27;20035;-68
2022/07/06 00:57:38;;;;;;;4.03;1.20;;;25.80;65.90;;;;;;5115033;28;20024;-68
2022/07/06 01:00:08;;;;;;;4.80;1.50;;;25.80;66.00;;;;;;5113271;28;20042;-68
2022/07/06 01:02:35;;;;;;;3.13;1.08;;;25.80;65.40;;;;;;5112751;28;20043;-68
2022/07/06 01:05:03;;;;;;;5.57;1.00;;;25.70;66.20;;;;;;5114212;28;20032;-68
2022/07/06 01:07:30;;;;;;;1.52;0.90;;;25.70;66.30;;;;;;5115420;28;20119;-67
2022/07/06 01:09:56;;;;;;;3.58;1.08;;;25.60;65.70;;;;;;5115613;28;20040;-68
2022/07/06 01:12:21;;;;;;;6.18;1.27;;;25.60;66.10;;;;;;5115049;28;20027;-68
2022/07/06 01:14:47;;;;;;;3.40;1.10;;;25.60;66.50;;;;;;5115161;28;20040;-68
2022/07/06 01:17:15;;;;;;;3.72;1.63;;;25.60;66.50;;;;;;5115174;28;20508;-68
2022/07/06 01:19:40;;;;;;;4.30;0.95;;;25.50;66.10;;;;;;5115401;28;20042;-68
2022/07/06 01:22:06;;;;;;;2.85;1.02;;;25.50;66.30;;;;;;5115019;28;20397;-67
2022/07/06 01:24:36;;;;;;;2.42;0.90;;;25.50;66.70;;;;;;5115323;28;20031;-68
2022/07/06 01:27:02;;;;;;;4.32;1.45;;;25.60;66.90;;;;;;5115183;28;20489;-66
2022/07/06 01:29:28;;;;;;;6.57;1.40;;;25.50;67.20;;;;;;5114789;28;20048;-68
2022/07/06 01:31:53;;;;;;;2.55;0.80;;;25.50;66.60;;;;;;5115349;28;20027;-68
2022/07/06 01:34:19;;;;;;;1.88;1.00;;;25.40;66.50;;;;;;5115357;27;20035;-68
2022/07/06 01:36:46;;;;;;;1.63;0.95;;;25.40;66.50;;;;;;5115035;28;20043;-68
2022/07/06 01:39:11;;;;;;;3.17;1.10;;;25.40;66.10;;;;;;5114966;28;20489;-68
2022/07/06 01:41:38;;;;;;;4.40;1.30;;;25.40;66.50;;;;;;5114343;28;20035;-68
2022/07/06 01:44:04;;;;;;;2.83;1.02;;;25.40;66.80;;;;;;5115024;28;20035;-68
2022/07/06 01:46:31;;;;;;;3.47;1.17;;;25.40;67.60;;;;;;5114904;28;20535;-68
2022/07/06 01:48:57;;;;;;;7.15;1.20;;;25.40;67.30;;;;;;5115126;28;20043;-67
2022/07/06 01:51:23;;;;;;;2.20;1.10;;;25.40;67.70;;;;;;5114539;28;20032;-68
2022/07/06 01:53:50;;;;;;;5.63;1.02;;;25.40;68.70;;;;;;5114596;28;20546;-68
2022/07/06 01:56:17;;;;;;;5.32;1.27;;;25.40;68.80;;;;;;5115158;28;20119;-68
2022/07/06 01:58:43;;;;;;;3.08;1.05;;;25.40;69.30;;;;;;5114719;28;20040;-67
2022/07/06 02:01:14;;;;;;;4.82;1.10;;;25.40;70.10;;;;;;5114650;28;20122;-67
2022/07/06 02:03:40;;;;;;;3.38;1.33;;;25.30;69.90;;;;;;5114624;28;20037;-67
2022/07/06 02:06:06;;;;;;;3.88;1.20;;;25.30;69.60;;;;;;5114652;28;20089;-68
2022/07/06 02:08:33;;;;;;;4.07;1.10;;;25.20;70.30;;;;;;5114013;28;20039;-68
2022/07/06 02:10:59;;;;;;;7.25;1.50;;;25.20;70.00;;;;;;5114562;28;20035;-67
2022/07/06 02:13:25;;;;;;;2.78;1.30;;;25.20;70.40;;;;;;5114263;28;20510;-68
2022/07/06 02:15:51;;;;;;;3.67;1.70;;;25.20;70.70;;;;;;5114334;28;20127;-67
2022/07/06 02:18:17;;;;;;;2.53;1.20;;;25.10;70.50;;;;;;5114508;28;20524;-67
2022/07/06 02:20:43;;;;;;;3.92;1.20;;;25.10;70.50;;;;;;5114270;28;20101;-68
2022/07/06 02:23:08;;;;;;;3.75;1.20;;;25.10;71.10;;;;;;5113650;28;20043;-68
2022/07/06 02:25:34;;;;;;;6.85;1.30;;;25.10;71.50;;;;;;5114185;28;20063;-68
2022/07/06 02:28:00;;;;;;;3.08;1.13;;;25.10;71.30;;;;;;5113975;28;20591;-68
2022/07/06 02:30:25;;;;;;;8.10;1.40;;;25.10;72.80;;;;;;5114153;28;20023;-68
2022/07/06 02:32:51;;;;;;;1.13;0.90;;;25.10;71.90;;;;;;5114209;28;20102;-68
2022/07/06 02:35:17;;;;;;;4.93;1.40;;;25.10;71.80;;;;;;5114141;28;20362;-67
2022/07/06 02:37:43;;;;;;;3.10;1.23;;;25.00;71.70;;;;;;5113665;28;20032;-68
2022/07/06 02:40:09;;;;;;;3.67;1.17;;;25.00;71.80;;;;;;5113751;28;20119;-67
2022/07/06 02:42:35;;;;;;;3.15;1.20;;;25.10;71.70;;;;;;5113941;28;20487;-67
2022/07/06 02:45:00;;;;;;;3.65;1.27;;;25.10;71.30;;;;;;5114005;28;20039;-68
2022/07/06 02:47:26;;;;;;;2.25;1.20;;;25.10;71.50;;;;;;5113870;28;20028;-68
2022/07/06 02:49:52;;;;;;;3.60;1.15;;;25.00;71.40;;;;;;5113468;28;20048;-67
2022/07/06 02:52:18;;;;;;;4.20;1.20;;;25.10;71.70;;;;;;5113450;28;20056;-68
2022/07/06 02:54:44;;;;;;;3.85;1.17;;;25.10;71.40;;;;;;5113714;28;20063;-68
2022/07/06 02:57:10;;;;;;;5.03;1.33;;;25.10;71.00;;;;;;5113980;28;20386;-67
2022/07/06 02:59:36;;;;;;;3.80;1.20;;;25.10;71.10;;;;;;5113809;28;20027;-67
2022/07/06 03:02:04;;;;;;;2.65;1.05;;;;;;;;;;5113713;28;20036;-68
2022/07/06 03:04:30;;;;;;;4.40;1.65;;;;;;;;;;5113611;28;20042;-68
2022/07/06 03:06:56;;;;;;;3.92;1.35;;;;;;;;;;5113239;28;20031;-68
2022/07/06 03:09:21;;;;;;;3.08;1.38;;;25.10;71.00;;;;;;5113185;28;20035;-68
2022/07/06 03:11:47;;;;;;;3.65;1.20;;;25.10;70.00;;;;;;5113528;28;20053;-67
2022/07/06 03:14:13;;;;;;;3.15;1.27;;;25.10;70.80;;;;;;5113742;28;20512;-67
2022/07/06 03:16:39;;;;;;;1.63;1.20;;;25.10;70.90;;;;;;5113301;28;20040;-68
2022/07/06 03:19:04;;;;;;;5.18;1.35;;;25.10;71.10;;;;;;5113368;28;20430;-68
2022/07/06 03:21:30;;;;;;;3.35;1.40;;;25.10;71.50;;;;;;5113205;28;20481;-67
2022/07/06 03:23:56;;;;;;;3.40;1.30;;;25.00;70.90;;;;;;5113234;28;20122;-69
2022/07/06 03:26:21;;;;;;;4.55;1.45;;;25.00;70.50;;;;;;5111992;28;20031;-68
2022/07/06 03:28:47;;;;;;;6.15;1.20;;;25.00;70.00;;;;;;5113309;28;20047;-70
2022/07/06 03:31:13;;;;;;;4.03;1.40;;;25.00;70.10;;;;;;5113416;28;20027;-69
2022/07/06 03:33:39;;;;;;;3.45;1.10;;;24.90;70.30;;;;;;5113131;28;20039;-70
2022/07/06 03:36:05;;;;;;;2.22;1.30;;;;;;;;;;5115785;28;20031;-70
2022/07/06 03:38:31;;;;;;;2.92;1.30;;;;;;;;;;5118048;28;20392;-69
2022/07/06 03:40:57;;;;;;;5.43;1.27;;;;;;;;;;5117366;28;20044;-70
2022/07/06 03:43:23;;;;;;;2.20;1.20;;;;;;;;;;5117299;28;20039;-68
2022/07/06 03:45:49;;;;;;;5.55;1.35;;;;;;;;;;5117449;28;20034;-70
2022/07/06 03:48:15;;;;;;;2.10;1.05;;;;;;;;;;5116967;28;20048;-69
2022/07/06 03:50:41;;;;;;;4.65;1.30;;;;;;;;;;5116889;28;20027;-70
2022/07/06 03:53:07;;;;;;;8.48;2.20;;;;;;;;;;5116285;28;20027;-69
2022/07/06 03:55:33;;;;;;;5.35;1.55;;;;;;;;;;5116019;28;20477;-70
2022/07/06 03:57:59;;;;;;;6.55;1.35;;;;;;;;;;5115395;28;20405;-69
2022/07/06 04:00:25;;;;;;;6.40;1.20;;;;;;;;;;5116333;28;20311;-69
2022/07/06 04:02:51;;;;;;;3.22;1.17;;;;;;;;;;5115888;28;20036;-70
2022/07/06 04:05:21;;;;;;;4.88;1.38;;;;;;;;;;5115421;28;20397;-70
2022/07/06 04:07:48;;;;;;;5.70;1.30;;;;;;;;;;5115300;28;20111;-71
2022/07/06 04:10:14;;;;;;;2.95;1.50;;;;;;;;;;5115861;28;20035;-70
2022/07/06 04:12:41;;;;;;;3.25;1.55;;;;;;;;;;5115238;28;20032;-68
2022/07/06 04:15:07;;;;;;;4.70;1.20;;;25.00;69.30;;;;;;5115636;28;20042;-70
2022/07/06 04:20:17;;;;;;;4.47;1.30;;;;;;;;;;5114942;28;20084;-66
2022/07/06 04:22:43;;;;;;;3.42;1.17;;;;;;;;;;5115143;28;20509;-70
2022/07/06 04:25:09;;;;;;;4.28;1.38;;;;;;;;;;5115648;28;20115;-69
2022/07/06 04:27:36;;;;;;;4.38;1.27;;;;;;;;;;5114738;28;20115;-70
2022/07/06 04:30:02;;;;;;;3.08;1.30;;;;;;;;;;5115142;28;20081;-70
2022/07/06 04:32:28;;;;;;;2.38;1.15;;;;;;;;;;5114752;28;20042;-69
2022/07/06 04:34:54;;;;;;;3.25;1.33;;;;;;;;;;5114968;28;20122;-70
2022/07/06 04:37:20;;;;;;;4.85;1.20;;;;;;;;;;5115488;28;20438;-70
2022/07/06 04:39:46;;;;;;;5.35;1.42;;;;;;;;;;5115208;28;20028;-69
2022/07/06 04:42:12;;;;;;;5.18;1.67;;;;;;;;;;5114972;28;20032;-70
2022/07/06 04:44:38;;;;;;;10.82;1.40;;;;;;;;;;5115123;28;20035;-70
2022/07/06 04:47:04;;;;;;;6.25;1.33;;;;;;;;;;5114383;28;20031;-69
2022/07/06 04:49:30;;;;;;;4.60;1.30;;;;;;;;;;5115363;28;20047;-70
2022/07/06 04:51:56;;;;;;;2.40;1.30;;;;;;;;;;5115536;28;20024;-69
2022/07/06 04:54:23;;;;;;;5.78;1.48;;;;;;;;;;5114750;28;20074;-71
2022/07/06 04:56:49;;;;;;;7.40;1.65;;;;;;;;;;5115375;28;20027;-70
2022/07/06 04:59:15;;;;;;;1.58;1.17;;;;;;;;;;5115043;28;20042;-68
2022/07/06 05:01:40;;;;;;;18.55;1.52;;;24.60;69.90;;;;;;5116190;28;20047;-73
2022/07/06 05:04:07;;;;;;;4.97;1.33;;;24.60;72.50;;;;;;5116810;28;20365;-73
2022/07/06 05:06:33;;;;;;;3.00;1.10;;;24.60;72.40;;;;;;5115205;28;20044;-73
2022/07/06 05:08:59;;;;;;;2.28;1.27;;;24.60;71.20;;;;;;5114969;28;20394;-73
2022/07/06 05:11:26;;;;;;;4.38;1.38;;;24.60;69.90;;;;;;5115083;28;20039;-73
2022/07/06 05:13:52;;;;;;;3.55;1.30;;;24.60;69.10;;;;;;5113607;28;20040;-73
2022/07/06 05:16:17;;;;;;;5.05;1.23;;;24.70;68.50;;;;;;5114320;28;20050;-73
2022/07/06 05:18:43;;;;;;;3.05;1.40;;;24.70;68.30;;;;;;5114279;28;20043;-73
2022/07/06 05:21:09;;;;;;;2.47;1.20;;;24.80;67.90;;;;;;5114413;28;20028;-73
2022/07/06 05:23:34;;;;;;;5.95;1.20;;;24.80;66.60;;;;;;5114064;28;20032;-73
2022/07/06 05:26:00;;;;;;;2.55;1.20;;;24.80;67.10;;;;;;5114287;28;20047;-73
2022/07/06 05:28:26;;;;;;;5.00;1.40;;;24.80;67.30;;;;;;5114814;28;20067;-73
2022/07/06 05:30:51;;;;;;;2.67;1.20;;;24.80;67.10;;;;;;5115096;28;20036;-72
2022/07/06 05:33:17;;;;;;;4.90;1.33;;;24.90;67.20;;;;;;5114952;28;20482;-73
2022/07/06 05:35:43;;;;;;;2.00;1.30;;;25.00;66.80;;;;;;5115131;28;20032;-73
2022/07/06 05:38:08;;;;;;;6.40;1.88;;;24.90;66.20;;;;;;5115191;28;20028;-73
2022/07/06 05:40:34;;;;;;;2.55;1.27;;;25.00;66.20;;;;;;5114868;28;20043;-72
2022/07/06 05:43:00;;;;;;;3.97;1.58;;;25.00;65.70;;;;;;5114888;28;20104;-73
2022/07/06 05:45:25;;;;;;;3.90;1.35;;;25.10;65.70;;;;;;5114822;28;20031;-72
2022/07/06 05:50:35;;;;;;;3.03;1.25;;;25.10;65.40;;;;;;5114927;28;20054;-72
2022/07/06 05:53:04;;;;;;;2.78;1.40;;;25.20;65.50;;;;;;5114776;28;20031;-74
2022/07/06 05:55:30;;;;;;;1.70;1.20;;;25.20;65.40;;;;;;5114643;28;20529;-72
2022/07/06 05:57:55;;;;;;;3.10;1.27;;;25.20;64.00;;;;;;5113797;28;20031;-71
2022/07/06 06:00:22;;;;;;;5.32;1.20;;;25.20;64.20;;;;;;5114379;28;20046;-70
2022/07/06 06:02:48;;;;;;;4.47;1.33;;;25.20;64.10;;;;;;5114794;28;20389;-69
2022/07/06 06:05:14;;;;;;;5.22;1.30;;;25.30;64.30;;;;;;5114300;28;20111;-70
2022/07/06 06:07:40;;;;;;;2.55;1.13;;;25.30;64.60;;;;;;5113054;28;20032;-65
2022/07/06 06:10:10;;;;;;;13.20;1.77;;;25.40;64.60;;;;;;5114484;28;20039;-67
2022/07/06 06:12:36;;;;;;;13.73;1.77;;;25.40;63.80;;;;;;5114450;28;20058;-67
2022/07/06 06:15:02;;;;;;;8.63;1.30;;;25.40;64.10;;;;;;5114587;28;20044;-66
2022/07/06 06:17:28;;;;;;;5.85;1.50;;;25.40;63.40;;;;;;5113716;28;20546;-66
2022/07/06 06:19:54;;;;;;;2.50;1.00;;;25.40;63.50;;;;;;5114069;28;20039;-66
2022/07/06 06:22:20;;;;;;;2.80;1.20;;;25.60;62.80;;;;;;5114333;28;20080;-66
2022/07/06 06:24:46;;;;;;;1.85;1.00;;;25.60;62.30;;;;;;5114285;28;20028;-65
2022/07/06 06:27:12;;;;;;;5.68;1.38;;;25.60;62.10;;;;;;5114384;28;20039;-80
2022/07/06 06:29:38;;;;;;;2.40;1.25;;;25.70;62.20;;;;;;5113876;28;20050;-67
2022/07/06 06:32:05;;;;;;;4.10;1.27;;;25.70;62.30;;;;;;5113952;28;20027;-67
2022/07/06 06:34:31;;;;;;;9.65;1.50;;;25.80;62.80;;;;;;5114146;28;20042;-67
2022/07/06 06:36:57;;;;;;;3.70;1.50;;;25.90;63.30;;;;;;5114160;28;20028;-67
2022/07/06 06:39:23;;;;;;;4.40;1.30;;;25.90;62.00;;;;;;5113706;28;20495;-67
2022/07/06 06:41:49;;;;;;;4.47;1.55;;;26.00;62.60;;;;;;5113926;28;20027;-67
2022/07/06 06:44:14;;;;;;;4.03;1.48;;;26.00;63.00;;;;;;5114231;28;20112;-69
2022/07/06 06:46:41;;;;;;;3.20;1.20;;;26.10;63.10;;;;;;5113683;28;20098;-69
2022/07/06 06:49:07;;;;;;;8.60;1.27;;;26.10;60.90;;;;;;5113503;28;20040;-68
2022/07/06 06:51:33;;;;;;;2.85;1.30;;;26.20;60.70;;;;;;5113735;28;20028;-68
2022/07/06 06:53:59;;;;;;;3.13;1.13;;;26.30;59.60;;;;;;5113612;28;20036;-68
2022/07/06 06:56:24;;;;;;;8.52;1.75;;;26.30;59.20;;;;;;5113665;28;20073;-67
2022/07/06 06:58:50;;;;;;;7.03;1.38;;;26.40;59.00;;;;;;5113418;28;20032;-69
2022/07/06 07:01:16;;;;;;;7.10;1.10;;;26.50;59.10;;;;;;5113276;28;20027;-68
2022/07/06 07:03:41;;;;;;;4.70;1.27;;;26.50;58.90;;;;;;5112584;28;20032;-67
2022/07/06 07:06:07;;;;;;;5.63;1.35;;;26.60;58.70;;;;;;5113477;28;20035;-68
2022/07/06 07:08:33;;;;;;;7.13;1.42;;;26.60;56.60;;;;;;5113545;28;20047;-68
2022/07/06 07:10:59;;;;;;;2.65;1.13;;;26.70;58.20;;;;;;5113101;28;20154;-67
2022/07/06 07:13:24;;;;;;;4.28;1.05;;;26.70;58.30;;;;;;5113429;28;20043;-67
2022/07/06 07:15:50;;;;;;;2.55;1.15;;;26.80;57.70;;;;;;5112741;28;20096;-67
2022/07/06 07:18:16;;;;;;;3.10;1.08;;;26.90;57.20;;;;;;5113113;28;20032;-67
2022/07/06 07:20:42;;;;;;;2.20;1.30;;;26.90;57.10;;;;;;5113367;28;20106;-68
2022/07/06 07:23:07;;;;;;;4.57;1.58;;;27.00;56.40;;;;;;5113441;28;20050;-68
2022/07/06 07:25:34;;;;;;;3.03;1.25;;;27.10;56.30;;;;;;5113040;28;20057;-66
2022/07/06 07:27:59;;;;;;;2.38;1.23;;;27.10;56.80;;;;;;5112897;28;20070;-67
2022/07/06 07:30:25;;;;;;;2.53;1.05;;;27.20;56.20;;;;;;5112939;28;20063;-66
2022/07/06 07:32:51;;;;;;;2.90;1.17;;;27.30;54.60;;;;;;5113238;28;20035;-66
2022/07/06 07:35:17;;;;;;;3.33;1.10;;;27.30;54.20;;;;;;5113142;28;20500;-66
2022/07/06 07:37:43;;;;;;;2.10;1.15;;;27.40;53.60;;;;;;5111135;28;20028;-65
2022/07/06 07:40:09;;;;;;;4.05;1.45;;;27.40;53.60;;;;;;5112419;28;20040;-64
2022/07/06 07:42:35;;;;;;;4.45;1.00;;;27.50;53.40;;;;;;5113259;28;20129;-65
2022/07/06 07:45:01;;;;;;;2.35;1.00;;;27.50;51.60;;;;;;5112819;28;20124;-65
2022/07/06 07:47:26;;;;;;;2.60;1.00;;;27.60;52.30;;;;;;5112772;28;20055;-64
2022/07/06 07:49:52;;;;;;;4.70;1.17;;;27.60;52.00;;;;;;5112807;28;20506;-65
2022/07/06 07:52:18;;;;;;;1.60;1.08;;;27.70;52.30;;;;;;5112106;28;20028;-64
2022/07/06 07:54:43;;;;;;;3.88;0.95;;;27.80;50.80;;;;;;5113092;28;20040;-65
2022/07/06 07:57:10;;;;;;;4.85;1.23;;;27.80;51.10;;;;;;5112545;28;20107;-67
2022/07/06 07:59:35;;;;;;;4.28;1.13;;;27.90;50.40;;;;;;5112694;28;20114;-64
2022/07/06 08:02:01;;;;;;;2.25;0.90;;;27.90;49.80;;;;;;5112736;28;20139;-65
2022/07/06 08:04:27;;;;;;;1.45;0.85;;;28.00;49.70;;;;;;5112791;28;20036;-64
2022/07/06 08:06:52;;;;;;;3.85;0.98;;;28.00;49.60;;;;;;5111949;28;20439;-65
2022/07/06 08:09:18;;;;;;;2.25;1.02;;;;;;;;;;5111366;28;20124;-65
2022/07/06 08:11:45;;;;;;;3.75;1.00;;;;;;;;;;5112916;28;20039;-63
2022/07/06 08:14:11;;;;;;;5.32;1.73;;;28.10;48.10;;;;;;5112939;28;20028;-64
2022/07/06 08:16:37;;;;;;;2.58;1.02;;;;;;;;;;5112505;28;20075;-64
2022/07/06 08:19:03;;;;;;;4.82;0.90;;;28.30;47.20;;;;;;5112779;28;20119;-65
2022/07/06 08:21:28;;;;;;;8.70;1.02;;;28.40;46.50;;;;;;5113095;28;20114;-65
2022/07/06 08:23:55;;;;;;;7.97;1.10;;;28.30;47.80;;;;;;5116551;28;20125;-64
2022/07/06 08:26:21;;;;;;;1.92;0.88;;;28.40;44.90;;;;;;5116347;28;20055;-66
2022/07/06 08:28:47;;;;;;;2.35;1.20;;;28.50;46.20;;;;;;5116017;28;20044;-65
2022/07/06 08:31:12;;;;;;;2.55;0.95;;;28.60;46.20;;;;;;5115946;28;20560;-66
2022/07/06 08:33:38;;;;;;;8.43;1.25;;;28.60;46.60;;;;;;5115893;28;20044;-65
2022/07/06 08:36:04;;;;;;;5.13;1.13;;;28.70;45.40;;;;;;5116178;28;20028;-65
2022/07/06 08:38:30;;;;;;;6.18;0.88;;;28.70;46.30;;;;;;5115856;28;20073;-64
2022/07/06 08:40:56;;;;;;;5.43;1.00;;;28.80;45.80;;;;;;5116029;28;20032;-65
2022/07/06 08:43:23;;;;;;;2.92;0.90;;;28.90;45.00;;;;;;5116016;28;20032;-65
2022/07/06 08:45:53;;;;;;;2.47;0.82;;;28.90;43.50;;;;;;5116268;28;20028;-65
2022/07/06 08:48:21;;;;;;;2.45;1.35;;;29.00;41.50;;;;;;5116484;28;20039;-65
2022/07/06 08:50:47;;;;;;;2.20;0.90;;;29.00;42.10;;;;;;5116052;27;20315;-67
2022/07/06 08:53:13;;;;;;;5.18;1.00;;;29.00;42.70;;;;;;5115577;28;20170;-65
2022/07/06 08:55:40;;;;;;;3.30;0.80;;;29.00;43.40;;;;;;5115554;28;20110;-65
2022/07/06 08:58:07;;;;;;;3.55;1.05;;;29.10;44.00;;;;;;5115609;28;20038;-65
2022/07/06 09:00:34;;;;;;;5.72;1.00;;;29.20;44.00;;;;;;5115787;28;20042;-65
2022/07/06 09:03:01;;;;;;;5.07;1.00;;;29.20;43.50;;;;;;5115696;28;20035;-65
2022/07/06 09:05:28;;;;;;;2.60;0.70;;;29.30;43.50;;;;;;5115528;28;20046;-65
2022/07/06 09:07:54;;;;;;;1.83;0.70;;;29.30;42.50;;;;;;5115647;28;20097;-65
2022/07/06 09:10:21;;;;;;;1.00;0.70;;;29.40;41.50;;;;;;5115444;28;20038;-65
2022/07/06 09:12:48;;;;;;;3.53;1.00;;;29.50;40.50;;;;;;5115407;28;20036;-65
2022/07/06 09:15:14;;;;;;;2.50;0.80;;;29.50;38.90;;;;;;5115544;28;20036;-64
2022/07/06 09:17:41;;;;;;;5.15;1.00;;;29.60;40.70;;;;;;5115108;28;20412;-65
2022/07/06 09:20:09;;;;;;;2.05;0.80;;;29.60;40.50;;;;;;5114858;28;20038;-65
2022/07/06 09:22:35;;;;;;;3.70;0.77;;;29.70;39.30;;;;;;5115459;28;20055;-65
2022/07/06 09:25:09;;;;;;;2.55;0.80;;;29.80;37.90;;;;;;5115464;28;20032;-65
2022/07/06 09:27:47;;;;;;;4.35;0.80;;;29.90;35.90;;;;;;5115269;28;20046;-65
2022/07/06 09:30:14;;;;;;;6.13;1.10;;;30.00;35.20;;;;;;5114873;28;20051;-65
2022/07/06 09:32:45;;;;;;;1.90;0.80;;;30.00;37.50;;;;;;5114510;27;20028;-65
2022/07/06 09:35:22;;;;;;;3.58;0.70;;;30.00;38.00;;;;;;5114893;28;20039;-64
2022/07/06 09:37:59;;;;;;;1.75;0.80;;;30.00;37.60;;;;;;5115215;28;20401;-64
2022/07/06 09:40:24;;;;;;;2.00;0.90;;;30.00;37.70;;;;;;5115143;27;20076;-64
2022/07/06 09:42:50;;;;;;;2.00;0.80;;;;;;;;;;5114231;28;20028;-65
2022/07/06 09:45:21;;;;;;;1.58;0.75;;;30.00;37.30;;;;;;5112887;28;20391;-67
2022/07/06 09:47:50;;;;;;;4.70;0.83;;;30.30;38.70;;;;;;5114317;28;20043;-65
2022/07/06 09:50:17;;;;;;;1.17;0.88;;;30.30;38.70;;;;;;5113692;28;20654;-65
2022/07/06 09:52:54;;;;;;;2.95;1.08;;;30.40;37.60;;;;;;5114253;28;20054;-65
2022/07/06 09:55:22;;;;;;;5.80;1.00;;;30.50;38.40;;;;;;5114869;28;20378;-65
2022/07/06 09:57:57;;;;;;;1.50;0.70;;;30.50;37.40;;;;;;5113769;28;20042;-65
2022/07/06 10:00:23;;;;;;;4.25;0.80;;;30.50;37.00;;;;;;5113852;28;20186;-65
2022/07/06 10:02:49;;;;;;;3.63;0.90;;;30.60;37.10;;;;;;5112019;28;20170;-65
2022/07/06 10:05:17;;;;;;;3.17;0.90;;;30.70;36.20;;;;;;5113567;28;20032;-65
2022/07/06 10:07:49;;;;;;;2.97;0.88;;;30.70;36.60;;;;;;5113067;28;20031;-62
2022/07/06 10:10:16;;;;;;;2.08;0.90;;;30.80;36.50;;;;;;5112748;28;20126;-65
2022/07/06 10:12:49;;;;;;;3.03;0.80;;;30.80;36.60;;;;;;5113424;28;20036;-63
2022/07/06 10:15:15;;;;;;;3.80;0.70;;;30.80;36.40;;;;;;5113666;28;20039;-64
2022/07/06 10:17:42;;;;;;;3.55;0.85;;;30.90;35.90;;;;;;5112936;28;20086;-64
2022/07/06 10:20:08;;;;;;;0.85;0.80;;;30.80;36.40;;;;;;5113243;28;20141;-63
2022/07/06 10:22:35;;;;;;;1.90;0.80;;;30.90;36.20;;;;;;5112937;28;20103;-63
2022/07/06 10:25:02;;;;;;;2.35;0.95;;;31.00;36.10;;;;;;5113321;28;20046;-64
2022/07/06 10:27:28;;;;;;;1.67;0.93;;;31.00;36.00;;;;;;5112774;28;20066;-64
2022/07/06 10:29:54;;;;;;;3.25;0.80;;;31.00;34.90;;;;;;5113595;28;20103;-64
2022/07/06 10:32:22;;;;;;;3.28;0.82;;;31.10;35.00;;;;;;5113664;28;20414;-65
2022/07/06 10:34:49;;;;;;;3.58;1.10;;;31.10;35.90;;;;;;5113367;28;20092;-65
2022/07/06 10:37:28;;;;;;;2.60;0.60;;;31.10;35.50;;;;;;5113457;28;20036;-65
2022/07/06 10:42:55;;;;;;;5.00;0.90;;;31.20;35.80;;;;;;5113106;28;20138;-65
2022/07/06 10:45:26;;;;;;;2.33;0.73;;;31.30;36.30;;;;;;5112949;28;20501;-66
2022/07/06 10:48:10;;;;;;;4.05;0.80;;;31.30;34.40;;;;;;5113218;28;20508;-66
2022/07/06 10:50:39;;;;;;;1.92;0.80;;;31.30;36.30;;;;;;5113234;28;20498;-66
2022/07/06 10:53:20;;;;;;;2.08;0.90;;;31.40;36.60;;;;;;5113032;28;20032;-65
2022/07/06 10:55:50;;;;;;;1.45;0.70;;;31.40;34.90;;;;;;5113124;28;20047;-66
2022/07/06 10:58:40;;;;;;;3.67;1.00;;;31.40;35.70;;;;;;5112856;28;20452;-66
2022/07/06 11:01:07;;;;;;;1.63;0.80;;;31.60;36.40;;;;;;5112634;28;20039;-65
2022/07/06 11:03:43;;;;;;;1.42;0.73;;;31.60;36.10;;;;;;5112688;28;20149;-66
2022/07/06 11:06:18;;;;;;;6.20;1.33;;;31.70;34.80;;;;;;5112449;28;20036;-65
2022/07/06 11:08:51;;;;;;;3.25;0.90;;;31.80;34.00;;;;;;5112565;28;20135;-66
2022/07/06 11:11:22;;;;;;;2.53;0.80;;;31.80;33.50;;;;;;5113174;28;20097;-64
2022/07/06 11:14:01;;;;;;;1.45;0.88;;;31.70;35.60;;;;;;5113334;28;20055;-66
2022/07/06 11:16:34;;;;;;;4.97;0.93;;;31.70;35.40;;;;;;5112141;28;20097;-65
2022/07/06 11:19:11;;;;;;;1.95;0.90;;;31.60;35.00;;;;;;5112673;28;20039;-66
2022/07/06 11:21:47;;;;;;;2.35;0.70;;;31.60;34.50;;;;;;5113140;28;20027;-66
2022/07/06 11:24:21;;;;;;;2.92;0.90;;;31.50;35.30;;;;;;5112676;28;20035;-65
2022/07/06 11:26:49;;;;;;;1.70;0.70;;;31.40;35.40;;;;;;5112721;28;20036;-66
2022/07/06 11:29:17;;;;;;;3.92;0.95;;;31.30;36.10;;;;;;5112348;28;20054;-66
2022/07/06 11:31:44;;;;;;;5.68;0.88;;;31.40;35.90;;;;;;5112887;28;20478;-66
2022/07/06 11:34:13;;;;;;;2.03;0.90;;;31.50;35.40;;;;;;5112987;28;20028;-65
2022/07/06 11:36:40;;;;;;;1.10;0.75;;;31.40;35.20;;;;;;5111835;28;20059;-66
2022/07/06 11:39:06;;;;;;;5.05;0.85;;;31.40;35.40;;;;;;5110188;28;20036;-66
2022/07/06 11:41:33;;;;;;;3.05;0.80;;;31.40;35.40;;;;;;5110106;28;20437;-66
2022/07/06 11:43:59;;;;;;;2.50;0.80;;;31.40;35.60;;;;;;5111477;28;20069;-65
2022/07/06 11:46:25;;;;;;;3.15;0.80;;;31.50;35.80;;;;;;5113256;28;20024;-65
2022/07/06 11:49:11;;;;;;;1.80;0.93;;;31.60;33.70;;;;;;5113035;28;20048;-65
2022/07/06 11:51:41;;;;;;;2.03;0.80;;;31.80;33.40;;;;;;5112243;28;20024;-66
2022/07/06 11:54:20;;;;;;;4.55;0.80;;;31.90;32.40;;;;;;5112809;28;20408;-66
2022/07/06 11:56:52;;;;;;;5.65;0.80;;;32.00;33.10;;;;;;5114279;28;20028;-67
2022/07/06 11:59:22;;;;;;;1.73;0.60;;;;;;;;;;5116216;28;20062;-67
2022/07/06 12:01:48;;;;;;;1.27;0.80;;;;;;;;;;5117337;28;20074;-67
2022/07/06 12:04:15;;;;;;;10.07;0.90;;;;;;;;;;5116709;28;20092;-67
2022/07/06 12:06:41;;;;;;;3.00;0.95;;;;;;;;;;5116783;28;20287;-67
2022/07/06 12:09:07;;;;;;;6.80;1.73;;;;;;;;;;5116907;28;20131;-66
2022/07/06 12:11:35;;;;;;;2.92;0.80;;;32.00;31.70;;;;;;5116690;28;20074;-67
2022/07/06 12:14:12;;;;;;;1.65;0.90;;;31.70;33.40;;;;;;5116528;28;20442;-67
2022/07/06 12:16:39;;;;;;;3.55;0.82;;;31.60;33.60;;;;;;5116701;28;20094;-67
2022/07/06 12:19:05;;;;;;;5.07;0.80;;;31.50;32.40;;;;;;5116807;28;20512;-68
2022/07/06 12:21:33;;;;;;;3.47;1.00;;;31.50;34.10;;;;;;5116284;28;20059;-67
2022/07/06 12:23:58;;;;;;;3.45;0.73;;;31.40;34.20;;;;;;5116355;28;20032;-67
2022/07/06 12:26:29;;;;;;;2.65;0.90;;;31.30;34.10;;;;;;5113614;27;20148;-67
2022/07/06 12:29:05;;;;;;;1.67;1.00;;;31.30;34.80;;;;;;5113226;28;20051;-67
2022/07/06 12:31:32;;;;;;;4.53;1.20;;;;;;;;;;5115999;28;20262;-67
2022/07/06 12:33:58;;;;;;;8.55;0.90;;;;;;;;;;5116193;28;20110;-67
2022/07/06 12:36:24;;;;;;;2.20;0.90;;;;;;;;;;5116555;28;20036;-68
2022/07/06 12:38:50;;;;;;;1.73;1.02;;;;;;;;;;5116449;28;20032;-68
2022/07/06 12:41:35;;;;;;;2.15;0.98;;;;;;;;;;5116310;28;20067;-67
2022/07/06 12:44:08;;;;;;;1.35;0.80;;;;;;;;;;5116132;28;20081;-68
2022/07/06 12:46:38;;;;;;;2.22;0.80;;;;;;;;;;5116152;28;20028;-68
2022/07/06 12:49:24;;;;;;;4.90;0.90;;;;;;;;;;5116525;28;20493;-67
2022/07/06 12:51:50;;;;;;;8.27;1.35;;;;;;;;;;5116028;28;20035;-67
2022/07/06 12:54:16;;;;;;;4.22;0.98;;;;;;;;;;5115896;28;20055;-68
2022/07/06 12:56:57;;;;;;;4.22;0.90;;;;;;;;;;5116199;28;20032;-67
2022/07/06 12:59:24;;;;;;;4.35;1.00;;;;;;;;;;5113043;28;20035;-68
2022/07/06 13:01:50;;;;;;;1.55;0.90;;;;;;;;;;5113322;28;20108;-68
2022/07/06 13:04:16;;;;;;;2.28;1.50;;;;;;;;;;5115221;28;20473;-68
2022/07/06 13:06:42;;;;;;;2.20;1.00;;;;;;;;;;5115774;28;20768;-67
2022/07/06 13:09:08;;;;;;;2.85;1.00;;;;;;;;;;5115418;28;20263;-67
2022/07/06 13:11:35;;;;;;;2.55;0.70;;;;;;;;;;5115747;28;20034;-67
2022/07/06 13:14:01;;;;;;;2.95;0.90;;;;;;;;;;5115797;28;20042;-67
2022/07/06 13:16:31;;;;;;;1.52;0.70;;;;;;;;;;5115348;28;20043;-68